Terminal Aerodrome Forecast
Issued by NWS

Home | Current Version | Previous Version | Graphics & Text | Print | Product List | Glossary On
Versions: 1 2 3 4 5 6 7 8 9 10 11 12 13 14 15 16 17 18 19 20 21 22 23 24 25 26 27
000
FTUS43 KABR 151700
TAFPIR
TAF
KPIR 151736Z 1518/1618 14024G30KT P6SM SKC
     FM160100 12013KT P6SM OVC250
     FM160500 12015KT P6SM -RA OVC050
     FM160900 01019G25KT 4SM -RASN OVC030
     FM161200 36027G35KT P6SM OVC025=

USA.gov is the U.S. government's official web portal to all federal, state and local government web resources and services.